sensor_id;sensor_type;location;lat;lon;timestamp;pressure;altitude;pressure_sealevel;temperature;humidity
25130;BME280;13308;50.860;13.664;2023-07-20T05:19:05;96454.59;;;16.15;100.00
25130;BME280;13308;50.860;13.664;2023-07-20T05:21:30;96469.44;;;16.21;100.00
25130;BME280;13308;50.860;13.664;2023-07-20T05:23:56;96468.03;;;16.35;100.00
25130;BME280;13308;50.860;13.664;2023-07-20T05:26:22;96472.81;;;16.34;100.00
25130;BME280;13308;50.860;13.664;2023-07-20T05:28:47;96465.09;;;16.29;100.00
25130;BME280;13308;50.860;13.664;2023-07-20T05:31:12;96472.97;;;16.31;100.00
25130;BME280;13308;50.860;13.664;2023-07-20T05:33:38;96470.09;;;16.43;100.00
25130;BME280;13308;50.860;13.664;2023-07-20T05:36:04;96471.91;;;16.37;100.00
25130;BME280;13308;50.860;13.664;2023-07-20T05:38:29;96453.97;;;16.47;100.00
25130;BME280;13308;50.860;13.664;2023-07-20T05:40:59;96453.38;;;16.43;100.00
25130;BME280;13308;50.860;13.664;2023-07-20T05:43:25;96448.09;;;16.54;100.00
25130;BME280;13308;50.860;13.664;2023-07-20T05:45:50;96461.06;;;16.75;100.00
25130;BME280;13308;50.860;13.664;2023-07-20T05:48:15;96459.22;;;16.72;100.00
25130;BME280;13308;50.860;13.664;2023-07-20T05:50:42;96454.19;;;17.03;100.00
25130;BME280;13308;50.860;13.664;2023-07-20T05:53:08;96455.94;;;17.24;100.00
25130;BME280;13308;50.860;13.664;2023-07-20T05:55:33;96458.44;;;17.22;100.00
25130;BME280;13308;50.860;13.664;2023-07-20T05:57:59;96463.84;;;17.26;100.00
25130;BME280;13308;50.860;13.664;2023-07-20T06:00:24;96475.47;;;17.24;100.00
25130;BME280;13308;50.860;13.664;2023-07-20T06:02:52;96482.91;;;17.27;100.00
25130;BME280;13308;50.860;13.664;2023-07-20T06:05:18;96478.38;;;17.39;100.00
25130;BME280;13308;50.860;13.664;2023-07-20T06:07:45;96479.44;;;17.50;100.00
25130;BME280;13308;50.860;13.664;2023-07-20T06:10:10;96478.25;;;17.66;100.00
25130;BME280;13308;50.860;13.664;2023-07-20T06:12:36;96480.69;;;17.73;100.00
25130;BME280;13308;50.860;13.664;2023-07-20T06:15:05;96470.25;;;17.59;100.00
25130;BME280;13308;50.860;13.664;2023-07-20T06:17:30;96476.31;;;17.48;100.00
25130;BME280;13308;50.860;13.664;2023-07-20T06:19:56;96474.34;;;17.40;100.00
25130;BME280;13308;50.860;13.664;2023-07-20T06:22:22;96475.84;;;17.50;100.00
25130;BME280;13308;50.860;13.664;2023-07-20T06:24:47;96471.59;;;17.63;100.00
25130;BME280;13308;50.860;13.664;2023-07-20T06:27:12;96485.00;;;17.50;100.00
25130;BME280;13308;50.860;13.664;2023-07-20T06:29:38;96482.34;;;17.05;100.00
25130;BME280;13308;50.860;13.664;2023-07-20T06:32:04;96493.84;;;16.80;100.00
25130;BME280;13308;50.860;13.664;2023-07-20T06:34:30;96497.56;;;16.86;100.00
25130;BME280;13308;50.860;13.664;2023-07-20T06:36:55;96504.06;;;16.65;100.00
25130;BME280;13308;50.860;13.664;2023-07-20T06:39:21;96502.84;;;16.57;100.00
25130;BME280;13308;50.860;13.664;2023-07-20T06:41:47;96494.81;;;16.41;100.00
25130;BME280;13308;50.860;13.664;2023-07-20T06:44:12;96487.03;;;16.18;100.00
25130;BME280;13308;50.860;13.664;2023-07-20T06:46:38;96502.66;;;16.07;100.00
25130;BME280;13308;50.860;13.664;2023-07-20T06:49:06;96503.56;;;15.95;100.00
25130;BME280;13308;50.860;13.664;2023-07-20T06:51:32;96502.47;;;15.92;100.00
25130;BME280;13308;50.860;13.664;2023-07-20T06:53:57;96493.97;;;15.87;100.00
25130;BME280;13308;50.860;13.664;2023-07-20T06:56:22;96506.78;;;15.84;100.00
25130;BME280;13308;50.860;13.664;2023-07-20T06:58:48;96505.00;;;15.60;100.00
25130;BME280;13308;50.860;13.664;2023-07-20T07:01:13;96515.38;;;15.59;100.00
25130;BME280;13308;50.860;13.664;2023-07-20T07:03:39;96506.75;;;15.66;100.00
25130;BME280;13308;50.860;13.664;2023-07-20T07:06:04;96510.56;;;15.60;100.00
25130;BME280;13308;50.860;13.664;2023-07-20T07:08:29;96494.13;;;15.83;100.00
25130;BME280;13308;50.860;13.664;2023-07-20T07:10:55;96508.63;;;15.87;100.00
25130;BME280;13308;50.860;13.664;2023-07-20T07:13:20;96524.13;;;15.97;100.00
25130;BME280;13308;50.860;13.664;2023-07-20T07:15:45;96522.75;;;16.20;100.00
25130;BME280;13308;50.860;13.664;2023-07-20T07:18:11;96519.22;;;16.19;100.00
25130;BME280;13308;50.860;13.664;2023-07-20T07:20:36;96517.34;;;16.34;100.00
25130;BME280;13308;50.860;13.664;2023-07-20T07:23:02;96523.38;;;16.06;100.00
25130;BME280;13308;50.860;13.664;2023-07-20T07:25:27;96537.00;;;16.22;100.00
25130;BME280;13308;50.860;13.664;2023-07-20T07:27:53;96519.22;;;16.28;100.00
25130;BME280;13308;50.860;13.664;2023-07-20T07:30:19;96528.47;;;16.16;100.00
25130;BME280;13308;50.860;13.664;2023-07-20T07:32:45;96522.59;;;15.96;100.00
25130;BME280;13308;50.860;13.664;2023-07-20T07:35:10;96515.22;;;16.38;100.00
25130;BME280;13308;50.860;13.664;2023-07-20T07:37:36;96514.91;;;16.54;100.00
25130;BME280;13308;50.860;13.664;2023-07-20T07:40:02;96521.88;;;16.77;100.00
25130;BME280;13308;50.860;13.664;2023-07-20T07:42:29;96517.84;;;16.78;100.00
25130;BME280;13308;50.860;13.664;2023-07-20T07:44:54;96522.34;;;16.84;100.00
25130;BME280;13308;50.860;13.664;2023-07-20T07:47:19;96529.41;;;17.03;100.00
25130;BME280;13308;50.860;13.664;2023-07-20T07:49:45;96532.00;;;17.25;100.00
25130;BME280;13308;50.860;13.664;2023-07-20T07:52:10;96524.63;;;17.54;100.00
25130;BME280;13308;50.860;13.664;2023-07-20T07:54:35;96519.44;;;17.29;100.00
25130;BME280;13308;50.860;13.664;2023-07-20T07:57:01;96531.19;;;17.33;100.00
25130;BME280;13308;50.860;13.664;2023-07-20T07:59:26;96531.25;;;17.98;100.00
25130;BME280;13308;50.860;13.664;2023-07-20T08:01:52;96537.44;;;18.49;100.00
25130;BME280;13308;50.860;13.664;2023-07-20T08:04:17;96528.41;;;19.06;100.00
25130;BME280;13308;50.860;13.664;2023-07-20T08:06:42;96529.72;;;18.82;100.00
25130;BME280;13308;50.860;13.664;2023-07-20T08:09:08;96529.34;;;18.28;100.00
25130;BME280;13308;50.860;13.664;2023-07-20T08:11:33;96530.66;;;18.65;100.00
25130;BME280;13308;50.860;13.664;2023-07-20T08:14:00;96533.91;;;19.01;100.00
25130;BME280;13308;50.860;13.664;2023-07-20T08:16:25;96537.72;;;18.75;100.00
25130;BME280;13308;50.860;13.664;2023-07-20T08:18:51;96546.94;;;18.66;100.00
25130;BME280;13308;50.860;13.664;2023-07-20T08:21:16;96557.19;;;18.46;100.00
25130;BME280;13308;50.860;13.664;2023-07-20T08:23:41;96564.28;;;18.23;100.00
25130;BME280;13308;50.860;13.664;2023-07-20T08:26:07;96551.06;;;18.00;100.00
25130;BME280;13308;50.860;13.664;2023-07-20T08:28:33;96543.09;;;17.84;100.00
25130;BME280;13308;50.860;13.664;2023-07-20T08:30:59;96559.41;;;18.09;100.00
25130;BME280;13308;50.860;13.664;2023-07-20T08:33:24;96564.56;;;18.25;100.00
25130;BME280;13308;50.860;13.664;2023-07-20T08:35:50;96558.03;;;19.71;100.00
25130;BME280;13308;50.860;13.664;2023-07-20T08:38:15;96563.94;;;20.62;98.13
25130;BME280;13308;50.860;13.664;2023-07-20T08:40:45;96563.09;;;20.76;91.58
25130;BME280;13308;50.860;13.664;2023-07-20T08:43:12;96561.38;;;21.24;84.85
25130;BME280;13308;50.860;13.664;2023-07-20T08:45:39;96558.50;;;20.93;87.29
25130;BME280;13308;50.860;13.664;2023-07-20T08:48:06;96562.69;;;20.43;88.87
25130;BME280;13308;50.860;13.664;2023-07-20T08:50:33;96564.09;;;19.84;90.35
25130;BME280;13308;50.860;13.664;2023-07-20T08:52:59;96557.09;;;20.43;89.50
25130;BME280;13308;50.860;13.664;2023-07-20T08:55:27;96564.00;;;20.67;88.09
25130;BME280;13308;50.860;13.664;2023-07-20T08:57:54;96547.09;;;21.53;89.51
25130;BME280;13308;50.860;13.664;2023-07-20T09:00:20;96560.72;;;21.34;81.77
25130;BME280;13308;50.860;13.664;2023-07-20T09:02:55;96554.53;;;21.56;83.76
25130;BME280;13308;50.860;13.664;2023-07-20T09:05:23;96555.53;;;21.53;82.97
25130;BME280;13308;50.860;13.664;2023-07-20T09:07:51;96559.69;;;21.32;83.57
25130;BME280;13308;50.860;13.664;2023-07-20T09:10:17;96558.91;;;20.66;82.56
25130;BME280;13308;50.860;13.664;2023-07-20T09:12:43;96566.34;;;20.49;83.18
25130;BME280;13308;50.860;13.664;2023-07-20T09:15:10;96560.72;;;20.49;84.60
25130;BME280;13308;50.860;13.664;2023-07-20T09:17:36;96562.81;;;20.34;85.78
25130;BME280;13308;50.860;13.664;2023-07-20T09:20:08;96561.28;;;20.93;86.30
25130;BME280;13308;50.860;13.664;2023-07-20T09:22:37;96557.66;;;20.67;85.92
25130;BME280;13308;50.860;13.664;2023-07-20T09:25:07;96558.63;;;20.44;84.67
25130;BME280;13308;50.860;13.664;2023-07-20T09:27:37;96558.41;;;21.07;84.92
25130;BME280;13308;50.860;13.664;2023-07-20T09:30:04;96553.38;;;20.91;86.71
25130;BME280;13308;50.860;13.664;2023-07-20T09:32:29;96561.38;;;20.58;85.91
25130;BME280;13308;50.860;13.664;2023-07-20T09:34:55;96565.19;;;21.21;84.57
25130;BME280;13308;50.860;13.664;2023-07-20T09:37:23;96561.81;;;21.68;81.93
25130;BME280;13308;50.860;13.664;2023-07-20T09:39:52;96560.19;;;21.87;79.94
25130;BME280;13308;50.860;13.664;2023-07-20T09:42:18;96553.94;;;21.72;79.86
25130;BME280;13308;50.860;13.664;2023-07-20T09:44:44;96564.50;;;21.06;81.93
25130;BME280;13308;50.860;13.664;2023-07-20T09:47:09;96572.19;;;21.11;79.13
25130;BME280;13308;50.860;13.664;2023-07-20T09:49:41;96565.19;;;21.21;79.41
25130;BME280;13308;50.860;13.664;2023-07-20T09:52:11;96573.00;;;21.37;79.72
25130;BME280;13308;50.860;13.664;2023-07-20T09:54:40;96578.16;;;20.78;79.76
25130;BME280;13308;50.860;13.664;2023-07-20T09:57:09;96576.31;;;20.90;80.22
25130;BME280;13308;50.860;13.664;2023-07-20T09:59:35;96563.63;;;21.20;82.01
25130;BME280;13308;50.860;13.664;2023-07-20T10:02:02;96566.38;;;20.89;80.74
25130;BME280;13308;50.860;13.664;2023-07-20T10:04:30;96560.31;;;20.96;82.69
25130;BME280;13308;50.860;13.664;2023-07-20T10:06:59;96564.09;;;21.13;81.24
25130;BME280;13308;50.860;13.664;2023-07-20T10:09:30;96566.50;;;22.13;77.95
25130;BME280;13308;50.860;13.664;2023-07-20T10:11:59;96575.38;;;22.00;72.49
25130;BME280;13308;50.860;13.664;2023-07-20T10:14:25;96572.22;;;21.62;74.02
25130;BME280;13308;50.860;13.664;2023-07-20T10:16:55;96571.66;;;21.07;75.46
25130;BME280;13308;50.860;13.664;2023-07-20T10:19:27;96565.16;;;21.72;77.23
25130;BME280;13308;50.860;13.664;2023-07-20T10:22:00;96576.81;;;22.27;72.19
25130;BME280;13308;50.860;13.664;2023-07-20T10:24:29;96573.19;;;21.84;73.00
25130;BME280;13308;50.860;13.664;2023-07-20T10:26:55;96574.19;;;21.56;72.86
25130;BME280;13308;50.860;13.664;2023-07-20T10:29:22;96569.38;;;21.31;73.91
25130;BME280;13308;50.860;13.664;2023-07-20T10:31:48;96570.41;;;20.68;78.09
25130;BME280;13308;50.860;13.664;2023-07-20T10:34:14;96562.63;;;21.23;77.85
25130;BME280;13308;50.860;13.664;2023-07-20T10:36:46;96556.16;;;21.37;77.46
25130;BME280;13308;50.860;13.664;2023-07-20T10:39:43;96565.28;;;21.57;76.12
25130;BME280;13308;50.860;13.664;2023-07-20T10:42:09;96574.03;;;21.14;76.49
25130;BME280;13308;50.860;13.664;2023-07-20T10:44:39;96565.50;;;21.28;76.33
25130;BME280;13308;50.860;13.664;2023-07-20T10:47:12;96563.91;;;21.22;75.61
25130;BME280;13308;50.860;13.664;2023-07-20T10:50:00;96562.44;;;21.01;78.50
25130;BME280;13308;50.860;13.664;2023-07-20T10:52:25;96558.63;;;21.04;77.27
25130;BME280;13308;50.860;13.664;2023-07-20T10:54:51;96560.75;;;21.14;77.46
25130;BME280;13308;50.860;13.664;2023-07-20T10:57:30;96564.09;;;20.93;79.50
25130;BME280;13308;50.860;13.664;2023-07-20T11:00:13;96561.69;;;20.86;81.52
25130;BME280;13308;50.860;13.664;2023-07-20T11:02:47;96558.88;;;21.06;78.33
25130;BME280;13308;50.860;13.664;2023-07-20T11:05:32;96550.09;;;21.44;74.61
25130;BME280;13308;50.860;13.664;2023-07-20T11:07:58;96548.38;;;21.26;78.42
25130;BME280;13308;50.860;13.664;2023-07-20T11:10:24;96555.59;;;21.33;75.86
25130;BME280;13308;50.860;13.664;2023-07-20T11:13:23;96551.41;;;21.48;77.36
25130;BME280;13308;50.860;13.664;2023-07-20T11:18:25;96553.28;;;21.31;75.92
25130;BME280;13308;50.860;13.664;2023-07-20T11:20:50;96557.28;;;21.50;75.58
25130;BME280;13308;50.860;13.664;2023-07-20T11:23:16;96548.47;;;21.63;75.38
25130;BME280;13308;50.860;13.664;2023-07-20T11:25:41;96549.53;;;21.40;76.12
25130;BME280;13308;50.860;13.664;2023-07-20T11:28:08;96550.44;;;21.26;78.16
25130;BME280;13308;50.860;13.664;2023-07-20T11:30:36;96553.00;;;21.04;78.22
25130;BME280;13308;50.860;13.664;2023-07-20T11:33:01;96548.22;;;21.61;77.88
25130;BME280;13308;50.860;13.664;2023-07-20T11:35:27;96547.41;;;22.64;75.02
25130;BME280;13308;50.860;13.664;2023-07-20T11:37:52;96553.09;;;22.81;68.91
25130;BME280;13308;50.860;13.664;2023-07-20T11:40:18;96552.16;;;23.06;67.61
25130;BME280;13308;50.860;13.664;2023-07-20T11:42:43;96552.09;;;22.84;66.77
25130;BME280;13308;50.860;13.664;2023-07-20T11:45:10;96567.47;;;22.94;63.70
25130;BME280;13308;50.860;13.664;2023-07-20T11:47:40;96562.81;;;22.80;65.17
25130;BME280;13308;50.860;13.664;2023-07-20T11:50:07;96560.81;;;22.97;66.33
25130;BME280;13308;50.860;13.664;2023-07-20T11:52:33;96554.53;;;23.24;66.99
25130;BME280;13308;50.860;13.664;2023-07-20T11:54:58;96558.94;;;23.47;65.61
25130;BME280;13308;50.860;13.664;2023-07-20T11:57:24;96543.84;;;23.39;62.86
25130;BME280;13308;50.860;13.664;2023-07-20T11:59:53;96549.19;;;23.53;65.38
25130;BME280;13308;50.860;13.664;2023-07-20T12:02:20;96553.88;;;24.06;61.42
25130;BME280;13308;50.860;13.664;2023-07-20T12:04:47;96552.25;;;24.38;60.18
25130;BME280;13308;50.860;13.664;2023-07-20T12:07:13;96550.78;;;23.87;59.71
25130;BME280;13308;50.860;13.664;2023-07-20T12:09:38;96542.56;;;23.84;60.17
25130;BME280;13308;50.860;13.664;2023-07-20T12:12:09;96550.66;;;23.16;62.12
25130;BME280;13308;50.860;13.664;2023-07-20T12:14:36;96548.97;;;23.57;60.58
25130;BME280;13308;50.860;13.664;2023-07-20T12:17:01;96545.63;;;24.30;59.82
25130;BME280;13308;50.860;13.664;2023-07-20T12:19:27;96544.84;;;24.35;57.24
25130;BME280;13308;50.860;13.664;2023-07-20T12:21:57;96550.44;;;24.62;55.18
25130;BME280;13308;50.860;13.664;2023-07-20T12:24:24;96554.53;;;24.45;55.37
25130;BME280;13308;50.860;13.664;2023-07-20T12:26:56;96548.75;;;23.93;57.85
25130;BME280;13308;50.860;13.664;2023-07-20T12:29:23;96544.63;;;23.78;57.56
25130;BME280;13308;50.860;13.664;2023-07-20T12:31:48;96538.44;;;23.30;59.47
25130;BME280;13308;50.860;13.664;2023-07-20T12:34:13;96531.03;;;23.60;60.83
25130;BME280;13308;50.860;13.664;2023-07-20T12:37:03;96533.84;;;23.60;59.30
25130;BME280;13308;50.860;13.664;2023-07-20T12:39:55;96531.25;;;23.18;59.68
25130;BME280;13308;50.860;13.664;2023-07-20T12:42:20;96531.53;;;22.56;63.19
25130;BME280;13308;50.860;13.664;2023-07-20T12:44:46;96547.75;;;21.99;69.21
25130;BME280;13308;50.860;13.664;2023-07-20T12:47:12;96570.72;;;21.41;82.04
25130;BME280;13308;50.860;13.664;2023-07-20T12:49:37;96595.63;;;20.13;91.88
25130;BME280;13308;50.860;13.664;2023-07-20T12:52:03;96598.56;;;19.61;98.01
25130;BME280;13308;50.860;13.664;2023-07-20T12:54:28;96608.47;;;19.33;94.57
25130;BME280;13308;50.860;13.664;2023-07-20T12:56:54;96596.94;;;18.64;97.11
25130;BME280;13308;50.860;13.664;2023-07-20T12:59:19;96599.22;;;18.89;100.00
25130;BME280;13308;50.860;13.664;2023-07-20T13:01:45;96597.59;;;18.59;100.00
25130;BME280;13308;50.860;13.664;2023-07-20T13:04:10;96604.72;;;18.60;100.00
25130;BME280;13308;50.860;13.664;2023-07-20T13:06:36;96606.13;;;18.79;100.00
25130;BME280;13308;50.860;13.664;2023-07-20T13:09:02;96602.38;;;19.20;100.00
25130;BME280;13308;50.860;13.664;2023-07-20T13:11:28;96604.16;;;19.32;100.00
25130;BME280;13308;50.860;13.664;2023-07-20T13:13:53;96601.47;;;19.52;100.00
25130;BME280;13308;50.860;13.664;2023-07-20T13:16:19;96599.53;;;19.58;100.00
25130;BME280;13308;50.860;13.664;2023-07-20T13:18:44;96585.34;;;19.47;100.00
25130;BME280;13308;50.860;13.664;2023-07-20T13:21:10;96586.09;;;19.47;100.00
25130;BME280;13308;50.860;13.664;2023-07-20T13:23:36;96595.88;;;19.38;99.76
25130;BME280;13308;50.860;13.664;2023-07-20T13:26:05;96590.41;;;19.05;100.00
25130;BME280;13308;50.860;13.664;2023-07-20T13:28:30;96580.84;;;18.59;100.00
25130;BME280;13308;50.860;13.664;2023-07-20T13:30:56;96581.94;;;18.53;100.00
25130;BME280;13308;50.860;13.664;2023-07-20T13:33:21;96582.56;;;18.57;100.00
25130;BME280;13308;50.860;13.664;2023-07-20T13:35:46;96586.63;;;18.23;100.00
25130;BME280;13308;50.860;13.664;2023-07-20T13:38:12;96588.88;;;18.43;100.00
25130;BME280;13308;50.860;13.664;2023-07-20T13:40:37;96587.34;;;18.56;100.00
25130;BME280;13308;50.860;13.664;2023-07-20T13:43:03;96585.59;;;18.68;100.00
25130;BME280;13308;50.860;13.664;2023-07-20T13:45:28;96591.16;;;18.44;96.56
25130;BME280;13308;50.860;13.664;2023-07-20T13:47:53;96592.88;;;18.42;98.87
25130;BME280;13308;50.860;13.664;2023-07-20T13:50:18;96588.25;;;18.39;97.03
25130;BME280;13308;50.860;13.664;2023-07-20T13:52:44;96591.16;;;18.44;98.47
25130;BME280;13308;50.860;13.664;2023-07-20T13:55:09;96588.63;;;18.32;100.00
25130;BME280;13308;50.860;13.664;2023-07-20T13:57:35;96594.34;;;18.28;95.79
25130;BME280;13308;50.860;13.664;2023-07-20T14:00:00;96602.19;;;18.15;93.48
25130;BME280;13308;50.860;13.664;2023-07-20T14:02:26;96601.41;;;18.15;95.22
25130;BME280;13308;50.860;13.664;2023-07-20T14:04:52;96594.81;;;18.03;94.66
25130;BME280;13308;50.860;13.664;2023-07-20T14:07:20;96600.38;;;18.03;95.07
25130;BME280;13308;50.860;13.664;2023-07-20T14:09:46;96604.53;;;18.08;94.48
25130;BME280;13308;50.860;13.664;2023-07-20T14:12:12;96607.00;;;18.15;93.97
25130;BME280;13308;50.860;13.664;2023-07-20T14:14:39;96594.47;;;18.10;93.57
25130;BME280;13308;50.860;13.664;2023-07-20T14:17:06;96602.91;;;18.25;93.78
25130;BME280;13308;50.860;13.664;2023-07-20T14:19:31;96591.59;;;18.19;91.52
25130;BME280;13308;50.860;13.664;2023-07-20T14:21:57;96595.22;;;18.43;89.65
25130;BME280;13308;50.860;13.664;2023-07-20T14:24:25;96593.41;;;18.31;89.81
25130;BME280;13308;50.860;13.664;2023-07-20T14:26:50;96596.19;;;18.40;88.46
25130;BME280;13308;50.860;13.664;2023-07-20T14:29:15;96595.91;;;18.76;88.14
25130;BME280;13308;50.860;13.664;2023-07-20T14:31:43;96604.00;;;19.12;86.77
25130;BME280;13308;50.860;13.664;2023-07-20T14:34:08;96600.88;;;20.60;80.17
25130;BME280;13308;50.860;13.664;2023-07-20T14:36:34;96621.31;;;21.01;75.59
25130;BME280;13308;50.860;13.664;2023-07-20T14:38:59;96615.44;;;22.01;74.22
25130;BME280;13308;50.860;13.664;2023-07-20T14:41:25;96618.09;;;22.10;71.31
25130;BME280;13308;50.860;13.664;2023-07-20T14:43:51;96612.28;;;21.88;70.54
25130;BME280;13308;50.860;13.664;2023-07-20T14:46:16;96611.53;;;22.24;67.15
25130;BME280;13308;50.860;13.664;2023-07-20T14:48:41;96617.47;;;22.68;69.49
25130;BME280;13308;50.860;13.664;2023-07-20T14:51:07;96609.69;;;22.94;64.09
25130;BME280;13308;50.860;13.664;2023-07-20T14:53:32;96606.41;;;23.12;66.74
25130;BME280;13308;50.860;13.664;2023-07-20T14:55:59;96596.13;;;22.45;67.24
25130;BME280;13308;50.860;13.664;2023-07-20T14:58:26;96601.66;;;22.70;65.24
25130;BME280;13308;50.860;13.664;2023-07-20T15:00:51;96611.38;;;23.28;65.10
25130;BME280;13308;50.860;13.664;2023-07-20T15:03:16;96599.09;;;22.78;66.03
25130;BME280;13308;50.860;13.664;2023-07-20T15:05:41;96595.53;;;22.35;69.51
25130;BME280;13308;50.860;13.664;2023-07-20T15:08:07;96594.56;;;22.07;69.53
25130;BME280;13308;50.860;13.664;2023-07-20T15:10:34;96584.59;;;22.43;69.75
25130;BME280;13308;50.860;13.664;2023-07-20T15:12:59;96582.91;;;22.20;69.28
25130;BME280;13308;50.860;13.664;2023-07-20T15:15:25;96589.88;;;22.30;71.24
25130;BME280;13308;50.860;13.664;2023-07-20T15:17:50;96587.84;;;22.78;68.36
25130;BME280;13308;50.860;13.664;2023-07-20T15:20:16;96586.25;;;22.66;65.71
25130;BME280;13308;50.860;13.664;2023-07-20T15:22:42;96586.78;;;23.23;66.61
25130;BME280;13308;50.860;13.664;2023-07-20T15:25:09;96583.00;;;23.53;63.98
25130;BME280;13308;50.860;13.664;2023-07-20T15:27:38;96589.47;;;24.14;61.40
25130;BME280;13308;50.860;13.664;2023-07-20T15:30:04;96587.06;;;23.30;60.93
25130;BME280;13308;50.860;13.664;2023-07-20T15:32:30;96582.38;;;23.11;62.71
25130;BME280;13308;50.860;13.664;2023-07-20T15:34:55;96588.00;;;23.11;62.87
25130;BME280;13308;50.860;13.664;2023-07-20T15:37:20;96582.31;;;23.00;62.90
25130;BME280;13308;50.860;13.664;2023-07-20T15:39:50;96588.47;;;22.98;60.92
25130;BME280;13308;50.860;13.664;2023-07-20T15:42:15;96590.41;;;22.76;63.64
25130;BME280;13308;50.860;13.664;2023-07-20T15:44:41;96586.97;;;23.08;63.13
25130;BME280;13308;50.860;13.664;2023-07-20T15:47:06;96586.81;;;23.39;60.52
25130;BME280;13308;50.860;13.664;2023-07-20T15:49:32;96583.53;;;23.63;60.00
25130;BME280;13308;50.860;13.664;2023-07-20T15:51:59;96593.75;;;23.55;59.46
25130;BME280;13308;50.860;13.664;2023-07-20T15:54:24;96578.34;;;23.23;59.47
25130;BME280;13308;50.860;13.664;2023-07-20T15:56:50;96582.50;;;23.49;58.37
25130;BME280;13308;50.860;13.664;2023-07-20T15:59:16;96572.50;;;22.79;58.96
25130;BME280;13308;50.860;13.664;2023-07-20T16:01:42;96579.22;;;22.03;62.33
25130;BME280;13308;50.860;13.664;2023-07-20T16:04:09;96575.81;;;22.30;63.26
25130;BME280;13308;50.860;13.664;2023-07-20T16:06:35;96584.59;;;22.43;62.00
25130;BME280;13308;50.860;13.664;2023-07-20T16:09:02;96589.44;;;22.42;63.65
25130;BME280;13308;50.860;13.664;2023-07-20T16:11:29;96583.13;;;22.16;63.22
25130;BME280;13308;50.860;13.664;2023-07-20T16:13:55;96588.03;;;21.90;65.60
25130;BME280;13308;50.860;13.664;2023-07-20T16:16:21;96587.31;;;21.95;65.39
25130;BME280;13308;50.860;13.664;2023-07-20T16:18:48;96582.97;;;21.94;64.55
25130;BME280;13308;50.860;13.664;2023-07-20T16:21:14;96580.84;;;22.15;65.51
25130;BME280;13308;50.860;13.664;2023-07-20T16:23:40;96578.97;;;22.06;64.01
25130;BME280;13308;50.860;13.664;2023-07-20T16:26:05;96576.91;;;22.01;63.20
25130;BME280;13308;50.860;13.664;2023-07-20T16:28:31;96575.03;;;21.93;64.10
25130;BME280;13308;50.860;13.664;2023-07-20T16:30:56;96578.59;;;22.24;63.96
25130;BME280;13308;50.860;13.664;2023-07-20T16:33:22;96577.13;;;21.98;63.06
25130;BME280;13308;50.860;13.664;2023-07-20T16:35:48;96579.72;;;22.07;63.64
25130;BME280;13308;50.860;13.664;2023-07-20T16:38:14;96568.16;;;21.94;63.56
25130;BME280;13308;50.860;13.664;2023-07-20T16:40:39;96567.31;;;22.19;64.91
25130;BME280;13308;50.860;13.664;2023-07-20T16:43:04;96568.72;;;22.40;64.74
25130;BME280;13308;50.860;13.664;2023-07-20T16:45:33;96566.88;;;22.26;63.85
25130;BME280;13308;50.860;13.664;2023-07-20T16:47:59;96563.44;;;22.47;62.12
25130;BME280;13308;50.860;13.664;2023-07-20T16:50:24;96567.03;;;22.53;62.79
25130;BME280;13308;50.860;13.664;2023-07-20T16:52:50;96568.81;;;22.51;61.46
25130;BME280;13308;50.860;13.664;2023-07-20T16:55:15;96569.19;;;22.33;61.46
25130;BME280;13308;50.860;13.664;2023-07-20T16:57:41;96575.59;;;21.97;60.61
25130;BME280;13308;50.860;13.664;2023-07-20T17:00:06;96573.06;;;22.04;61.70
25130;BME280;13308;50.860;13.664;2023-07-20T17:02:36;96563.03;;;21.92;62.35
25130;BME280;13308;50.860;13.664;2023-07-20T17:05:02;96556.69;;;21.66;62.75
25130;BME280;13308;50.860;13.664;2023-07-20T17:07:27;96554.59;;;21.61;64.12
25130;BME280;13308;50.860;13.664;2023-07-20T17:09:52;96561.47;;;21.35;65.56
25130;BME280;13308;50.860;13.664;2023-07-20T17:12:18;96561.97;;;21.59;64.31
25130;BME280;13308;50.860;13.664;2023-07-20T17:14:43;96564.53;;;21.62;65.05
25130;BME280;13308;50.860;13.664;2023-07-20T17:17:08;96557.75;;;21.69;64.82
25130;BME280;13308;50.860;13.664;2023-07-20T17:19:34;96569.41;;;21.36;66.52
25130;BME280;13308;50.860;13.664;2023-07-20T17:21:59;96560.78;;;21.40;65.76
25130;BME280;13308;50.860;13.664;2023-07-20T17:24:25;96560.72;;;21.09;67.12
25130;BME280;13308;50.860;13.664;2023-07-20T17:26:50;96558.13;;;21.05;67.36
25130;BME280;13308;50.860;13.664;2023-07-20T17:29:15;96557.16;;;20.88;68.76
25130;BME280;13308;50.860;13.664;2023-07-20T17:31:41;96551.03;;;20.70;68.19
25130;BME280;13308;50.860;13.664;2023-07-20T17:34:06;96558.31;;;20.22;69.42
25130;BME280;13308;50.860;13.664;2023-07-20T17:36:32;96556.72;;;20.35;70.52
25130;BME280;13308;50.860;13.664;2023-07-20T17:38:57;96547.16;;;19.93;70.60
25130;BME280;13308;50.860;13.664;2023-07-20T17:41:23;96549.84;;;20.02;71.01
25130;BME280;13308;50.860;13.664;2023-07-20T17:43:48;96549.56;;;20.00;70.62
25130;BME280;13308;50.860;13.664;2023-07-20T17:46:13;96556.81;;;19.92;68.92
25130;BME280;13308;50.860;13.664;2023-07-20T17:48:39;96553.69;;;19.84;69.11
25130;BME280;13308;50.860;13.664;2023-07-20T17:51:04;96547.50;;;19.66;68.89
25130;BME280;13308;50.860;13.664;2023-07-20T17:53:29;96550.13;;;19.55;69.40
25130;BME280;13308;50.860;13.664;2023-07-20T17:55:55;96549.38;;;19.40;70.71
25130;BME280;13308;50.860;13.664;2023-07-20T17:58:21;96545.41;;;19.32;72.00
25130;BME280;13308;50.860;13.664;2023-07-20T18:00:46;96540.09;;;19.19;74.85
25130;BME280;13308;50.860;13.664;2023-07-20T18:03:11;96531.78;;;19.10;73.52
25130;BME280;13308;50.860;13.664;2023-07-20T18:05:37;96530.22;;;18.95;74.82